createdAt,value
2022-09-24T00:03:28.342Z,67.55
2022-09-24T00:08:30.267Z,67.53
2022-09-24T00:13:34.317Z,67.59
2022-09-24T00:18:36.771Z,67.60
2022-09-24T00:23:38.643Z,67.54
2022-09-24T00:28:40.494Z,67.43
2022-09-24T00:33:43.442Z,67.49
2022-09-24T00:38:48.137Z,67.38
2022-09-24T00:43:51.328Z,67.30
2022-09-24T00:48:58.029Z,67.33
2022-09-24T00:54:04.313Z,67.24
2022-09-24T00:59:08.064Z,67.34
2022-09-24T01:04:11.440Z,67.28
2022-09-24T01:09:13.586Z,67.52
2022-09-24T01:14:38.146Z,67.49
2022-09-24T01:20:03.784Z,67.56
2022-09-24T01:25:20.992Z,67.72
2022-09-24T01:30:23.104Z,67.68
2022-09-24T01:35:33.207Z,67.81
2022-09-24T01:40:36.743Z,67.79
2022-09-24T01:45:40.302Z,67.75
2022-09-24T01:50:52.005Z,67.79
2022-09-24T01:56:08.843Z,67.79
2022-09-24T02:01:15.614Z,67.73
2022-09-24T02:06:31.528Z,67.58
2022-09-24T02:11:36.909Z,67.48
2022-09-24T02:16:45.581Z,67.58
2022-09-24T02:21:49.017Z,67.66
2022-09-24T02:26:51.003Z,67.58
2022-09-24T02:31:55.907Z,67.72
2022-09-24T02:37:00.646Z,67.69
2022-09-24T02:42:05.681Z,67.59
2022-09-24T02:47:07.953Z,67.76
2022-09-24T02:52:10.410Z,67.56
2022-09-24T02:57:12.266Z,67.66
2022-09-24T03:02:15.338Z,67.62
2022-09-24T03:07:17.359Z,67.55
2022-09-24T03:12:19.164Z,67.45
2022-09-24T03:17:20.935Z,67.38
2022-09-24T03:22:22.776Z,67.20
2022-09-24T03:27:24.544Z,67.15
2022-09-24T03:32:27.078Z,67.03
2022-09-24T03:37:29.034Z,67.07
2022-09-24T03:42:30.987Z,66.83
2022-09-24T03:47:34.146Z,66.90
2022-09-24T03:52:35.958Z,66.87
2022-09-24T03:57:37.764Z,66.83
2022-09-24T04:02:40.879Z,66.97
2022-09-24T04:07:44.188Z,66.96
2022-09-24T04:12:46.157Z,67.03
2022-09-24T04:17:55.167Z,67.26
2022-09-24T04:22:58.617Z,67.20
2022-09-24T04:28:04.042Z,67.16
2022-09-24T04:33:07.017Z,67.21
2022-09-24T04:38:08.833Z,67.28
2022-09-24T04:43:10.818Z,67.43
2022-09-24T04:48:13.288Z,67.37
2022-09-24T04:53:15.098Z,67.20
2022-09-24T04:58:16.932Z,67.36
2022-09-24T05:03:21.032Z,67.41
2022-09-24T05:08:23.344Z,67.42
2022-09-24T05:13:25.105Z,67.37
2022-09-24T05:18:28.004Z,67.63
2022-09-24T05:23:29.757Z,67.60
2022-09-24T05:28:33.321Z,67.60
2022-09-24T05:33:37.225Z,67.76
2022-09-24T05:38:41.720Z,67.77
2022-09-24T05:43:43.847Z,67.83
2022-09-24T05:48:46.868Z,67.92
2022-09-24T05:53:49.062Z,67.90
2022-09-24T05:58:51.171Z,68.16
2022-09-24T06:03:53.008Z,68.29
2022-09-24T06:08:55.951Z,68.21
2022-09-24T06:13:57.685Z,68.32
2022-09-24T06:18:59.563Z,68.38
2022-09-24T06:24:01.657Z,68.50
2022-09-24T06:29:05.216Z,68.58
2022-09-24T06:34:12.011Z,68.57
2022-09-24T06:39:14.000Z,68.70
2022-09-24T06:44:15.813Z,68.73
2022-09-24T06:49:17.589Z,68.87
2022-09-24T06:54:19.782Z,68.94
2022-09-24T06:59:22.204Z,68.96
2022-09-24T07:04:24.197Z,69.11
2022-09-24T07:09:26.352Z,69.10
2022-09-24T07:14:28.263Z,69.17
2022-09-24T07:19:30.202Z,69.42
2022-09-24T07:24:32.034Z,69.73
2022-09-24T07:29:33.898Z,69.59
2022-09-24T07:34:35.806Z,69.75
2022-09-24T07:39:38.239Z,69.88
2022-09-24T07:44:40.021Z,69.97
2022-09-24T07:49:42.762Z,69.81
2022-09-24T07:54:44.768Z,69.84
2022-09-24T07:59:46.567Z,69.87
2022-09-24T08:04:49.246Z,69.70
2022-09-24T08:09:51.097Z,69.75
2022-09-24T08:14:53.083Z,69.77
2022-09-24T08:19:57.098Z,70.05
2022-09-24T08:24:59.046Z,69.91
2022-09-24T08:30:00.840Z,70.04
2022-09-24T08:35:02.836Z,70.02
2022-09-24T08:40:05.120Z,70.14
2022-09-24T08:45:28.405Z,70.09
2022-09-24T08:50:36.273Z,70.01
2022-09-24T08:55:48.419Z,70.05
2022-09-24T09:01:05.878Z,69.99
2022-09-24T09:06:27.102Z,69.86
2022-09-24T09:11:33.295Z,69.94
2022-09-24T09:16:47.523Z,70.08
2022-09-24T09:21:56.026Z,70.03
2022-09-24T09:26:58.396Z,69.82
2022-09-24T09:32:07.703Z,69.72
2022-09-24T09:37:26.418Z,69.88
2022-09-24T09:42:36.314Z,69.96
2022-09-24T09:47:48.181Z,70.08
2022-09-24T09:52:50.269Z,69.98
2022-09-24T09:57:53.267Z,69.73
2022-09-24T10:02:55.329Z,69.65
2022-09-24T10:07:58.241Z,69.53
2022-09-24T10:13:10.048Z,69.52
2022-09-24T10:18:14.473Z,69.72
2022-09-24T10:23:22.988Z,69.74
2022-09-24T10:28:44.532Z,69.19
2022-09-24T10:33:50.642Z,69.03
2022-09-24T10:39:14.277Z,68.48
2022-09-24T10:44:17.686Z,68.59
2022-09-24T10:49:35.426Z,68.07
2022-09-24T10:54:57.742Z,67.67
2022-09-24T11:00:23.619Z,67.62
2022-09-24T11:05:37.345Z,67.71
2022-09-24T11:11:00.913Z,66.87
2022-09-24T11:16:21.309Z,66.88
2022-09-24T11:21:48.828Z,66.59
2022-09-24T11:26:53.506Z,66.86
2022-09-24T11:32:27.231Z,66.28
2022-09-24T11:37:47.456Z,65.97
2022-09-24T11:42:54.978Z,66.02
2022-09-24T11:48:33.567Z,66.00
2022-09-24T11:53:53.984Z,66.09
2022-09-24T11:59:24.073Z,65.96
2022-09-24T12:04:52.041Z,65.42
2022-09-24T12:10:02.350Z,65.83
2022-09-24T12:15:18.504Z,65.37
2022-09-24T12:20:29.117Z,65.45
2022-09-24T12:25:40.749Z,65.23
2022-09-24T12:31:26.522Z,65.02
2022-09-24T12:36:56.940Z,65.17
2022-09-24T12:42:08.216Z,64.87
2022-09-24T12:47:26.897Z,64.46
2022-09-24T12:52:36.774Z,64.31
2022-09-24T12:57:42.864Z,64.42
2022-09-24T13:02:48.278Z,64.14
2022-09-24T13:08:03.630Z,63.87
2022-09-24T13:13:27.722Z,63.58
2022-09-24T13:18:32.337Z,63.73
2022-09-24T13:23:46.675Z,63.32
2022-09-24T13:28:48.885Z,63.32
2022-09-24T13:33:58.494Z,63.41
2022-09-24T13:39:14.309Z,62.97
2022-09-24T13:44:31.718Z,63.13
2022-09-24T13:49:35.007Z,63.34
2022-09-24T13:54:48.968Z,62.89
2022-09-24T14:00:05.466Z,62.39
2022-09-24T14:05:17.877Z,62.50
2022-09-24T14:10:19.719Z,62.52
2022-09-24T14:15:21.543Z,62.17
2022-09-24T14:20:25.995Z,61.82
2022-09-24T14:25:33.489Z,61.60
2022-09-24T14:30:39.503Z,61.81
2022-09-24T14:35:47.158Z,61.91
2022-09-24T14:40:51.470Z,61.93
2022-09-24T14:46:04.614Z,62.03
2022-09-24T14:51:33.193Z,61.54
2022-09-24T14:56:36.347Z,61.55
2022-09-24T15:01:38.176Z,61.37
2022-09-24T15:06:47.702Z,61.06
2022-09-24T15:11:49.642Z,61.06
2022-09-24T15:16:52.903Z,61.14
2022-09-24T15:21:58.859Z,60.93
2022-09-24T15:27:00.927Z,61.39
2022-09-24T15:32:02.843Z,61.61
2022-09-24T15:37:05.366Z,61.91
2022-09-24T15:42:09.279Z,62.58
2022-09-24T15:47:11.325Z,62.41
2022-09-24T15:52:25.376Z,62.75
2022-09-24T15:57:27.281Z,62.80
2022-09-24T16:02:33.973Z,63.21
2022-09-24T16:07:35.843Z,63.37
2022-09-24T16:12:37.807Z,63.52
2022-09-24T16:17:39.751Z,64.04
2022-09-24T16:22:41.762Z,64.11
2022-09-24T16:27:44.147Z,64.27
2022-09-24T16:32:46.497Z,64.74
2022-09-24T16:37:48.282Z,65.12
2022-09-24T16:42:50.026Z,65.31
2022-09-24T16:47:51.864Z,65.41
2022-09-24T16:52:55.455Z,65.56
2022-09-24T16:57:57.441Z,65.85
2022-09-24T17:02:59.810Z,66.03
2022-09-24T17:08:01.850Z,66.13
2022-09-24T17:13:03.943Z,66.31
2022-09-24T17:18:05.726Z,66.50
2022-09-24T17:23:07.469Z,66.48
2022-09-24T17:28:11.321Z,66.60
2022-09-24T17:33:41.487Z,66.60
2022-09-24T17:38:37.053Z,66.40
2022-09-24T17:43:40.323Z,66.51
2022-09-24T17:48:44.708Z,66.41
2022-09-24T17:53:47.133Z,66.59
2022-09-24T17:58:49.003Z,66.68
2022-09-24T18:03:55.447Z,66.67
2022-09-24T18:08:57.628Z,66.71
2022-09-24T18:14:02.401Z,66.73
2022-09-24T18:19:04.279Z,66.66
2022-09-24T18:24:06.459Z,66.78
2022-09-24T18:29:16.107Z,66.90
2022-09-24T18:34:18.205Z,66.86
2022-09-24T18:39:24.985Z,66.92
2022-09-24T18:44:27.630Z,66.91
2022-09-24T18:49:29.423Z,66.92
2022-09-24T18:54:31.149Z,66.96
2022-09-24T18:59:44.850Z,66.79
2022-09-24T19:04:46.629Z,67.01
2022-09-24T19:09:48.673Z,67.02
2022-09-24T19:14:54.147Z,67.00
2022-09-24T19:19:56.346Z,67.08
2022-09-24T19:24:58.153Z,67.03
2022-09-24T19:30:01.164Z,66.93
2022-09-24T19:35:03.003Z,67.01
2022-09-24T19:40:05.185Z,67.08
2022-09-24T19:45:07.385Z,67.18
2022-09-24T19:50:12.637Z,67.26
2022-09-24T19:55:18.570Z,67.25
2022-09-24T20:00:23.640Z,67.21
2022-09-24T20:05:26.408Z,67.35
2022-09-24T20:10:28.452Z,67.45
2022-09-24T20:15:30.349Z,67.57
2022-09-24T20:20:33.207Z,67.68
2022-09-24T20:25:54.356Z,67.74
2022-09-24T20:30:56.585Z,67.67
2022-09-24T20:36:02.827Z,67.71
2022-09-24T20:41:09.042Z,67.81
2022-09-24T20:46:14.222Z,67.87
2022-09-24T20:51:18.770Z,67.82
2022-09-24T20:56:21.483Z,67.90
2022-09-24T21:01:24.940Z,67.82
2022-09-24T21:06:26.821Z,67.92
2022-09-24T21:11:28.697Z,67.90
2022-09-24T21:16:34.491Z,68.09
2022-09-24T21:21:38.471Z,68.06
2022-09-24T21:26:41.554Z,68.01
2022-09-24T21:31:46.165Z,67.99
2022-09-24T21:36:48.646Z,68.29
2022-09-24T21:41:53.635Z,68.18
2022-09-24T21:46:55.453Z,68.30
2022-09-24T21:51:57.717Z,68.29
2022-09-24T21:56:59.977Z,68.50
2022-09-24T22:02:03.556Z,68.46
2022-09-24T22:07:05.482Z,68.69
2022-09-24T22:12:07.365Z,68.64
2022-09-24T22:17:09.233Z,68.77
2022-09-24T22:22:11.053Z,68.79
2022-09-24T22:27:14.122Z,68.95
2022-09-24T22:32:15.831Z,68.83
2022-09-24T22:37:17.862Z,68.83
2022-09-24T22:42:19.801Z,68.82
2022-09-24T22:47:21.606Z,68.86
2022-09-24T22:52:23.772Z,68.99
2022-09-24T22:57:26.016Z,68.91
2022-09-24T23:02:28.261Z,68.85
2022-09-24T23:07:30.128Z,68.96
2022-09-24T23:12:33.292Z,69.10
2022-09-24T23:17:37.965Z,69.01
2022-09-24T23:22:40.142Z,69.00
2022-09-24T23:27:42.003Z,68.92
2022-09-24T23:32:43.797Z,68.96
2022-09-24T23:37:45.616Z,69.12
2022-09-24T23:42:47.424Z,69.16
2022-09-24T23:47:49.397Z,69.01
2022-09-24T23:52:51.268Z,69.03
2022-09-24T23:57:53.124Z,69.03
